createdAt,value
2017-06-24T00:00:46.623Z,9.77
2017-06-24T00:03:14.029Z,10.50
2017-06-24T00:05:41.424Z,12.27
2017-06-24T00:08:08.827Z,17.87
2017-06-24T00:10:36.215Z,19.60
2017-06-24T00:13:03.619Z,14.03
2017-06-24T00:15:31.017Z,9.67
2017-06-24T00:17:58.419Z,18.27
2017-06-24T00:20:25.810Z,12.27
2017-06-24T00:22:53.227Z,16.90
2017-06-24T00:25:20.618Z,16.27
2017-06-24T00:27:48.014Z,17.50
2017-06-24T00:30:15.427Z,18.03
2017-06-24T00:32:42.832Z,13.67
2017-06-24T00:35:10.227Z,20.30
2017-06-24T00:37:37.623Z,15.50
2017-06-24T00:40:05.036Z,17.20
2017-06-24T00:42:32.427Z,15.63
2017-06-24T00:44:59.820Z,16.37
2017-06-24T00:47:27.215Z,16.70
2017-06-24T00:49:54.625Z,17.10
2017-06-24T00:52:22.011Z,19.37
2017-06-24T00:54:49.418Z,16.50
2017-06-24T00:57:16.811Z,10.60
2017-06-24T00:59:44.215Z,20.50
2017-06-24T01:02:11.619Z,20.63
2017-06-24T01:04:39.018Z,17.10
2017-06-24T01:07:06.415Z,9.70
2017-06-24T01:09:33.822Z,19.10
2017-06-24T01:12:01.218Z,13.77
2017-06-24T01:14:28.619Z,17.60
2017-06-24T01:16:56.028Z,18.30
2017-06-24T01:19:23.427Z,16.17
2017-06-24T01:21:50.823Z,16.83
2017-06-24T01:24:18.223Z,21.73
2017-06-24T01:26:45.631Z,20.80
2017-06-24T01:29:13.026Z,12.50
2017-06-24T01:31:40.418Z,14.17
2017-06-24T01:34:07.821Z,14.73
2017-06-24T01:36:35.212Z,16.23
2017-06-24T01:39:02.610Z,11.97
2017-06-24T01:41:30.037Z,12.00
2017-06-24T01:43:57.532Z,12.47
2017-06-24T01:46:25.251Z,17.03
2017-06-24T01:48:52.644Z,13.13
2017-06-24T01:51:20.043Z,13.33
2017-06-24T01:53:47.444Z,11.57
2017-06-24T01:56:14.846Z,12.80
2017-06-24T01:58:42.555Z,16.50
2017-06-24T02:01:09.950Z,14.90
2017-06-24T02:03:37.355Z,13.63
2017-06-24T02:06:04.755Z,15.83
2017-06-24T02:08:32.158Z,15.33
2017-06-24T02:10:59.563Z,17.93
2017-06-24T02:13:26.959Z,12.87
2017-06-24T02:15:54.357Z,13.53
2017-06-24T02:18:21.748Z,18.90
2017-06-24T02:20:49.153Z,13.57
2017-06-24T02:23:16.547Z,13.27
2017-06-24T02:25:43.951Z,19.60
2017-06-24T02:28:11.474Z,19.17
2017-06-24T02:30:38.935Z,15.00
2017-06-24T02:33:06.331Z,19.57
2017-06-24T02:35:33.736Z,11.77
2017-06-24T02:38:01.137Z,12.37
2017-06-24T02:40:28.536Z,13.90
2017-06-24T02:42:55.939Z,21.17
2017-06-24T02:45:23.349Z,15.07
2017-06-24T02:47:50.747Z,10.57
2017-06-24T02:50:18.154Z,15.83
2017-06-24T02:52:46.352Z,16.10
2017-06-24T02:55:13.767Z,12.77
2017-06-24T02:57:41.183Z,15.80
2017-06-24T03:00:08.586Z,20.83
2017-06-24T03:02:35.994Z,19.97
2017-06-24T03:05:03.388Z,16.63
2017-06-24T03:07:30.794Z,10.00
2017-06-24T03:09:58.239Z,13.53
2017-06-24T03:12:37.305Z,25.23
2017-06-24T03:15:04.694Z,16.83
2017-06-24T03:17:32.101Z,25.43
2017-06-24T03:19:59.491Z,14.33
2017-06-24T03:22:26.902Z,9.93
2017-06-24T03:24:54.298Z,16.93
2017-06-24T03:27:21.699Z,9.93
2017-06-24T03:29:49.098Z,12.57
2017-06-24T03:32:16.500Z,12.33
2017-06-24T03:34:43.913Z,13.80
2017-06-24T03:37:11.359Z,14.70
2017-06-24T03:39:38.766Z,10.33
2017-06-24T03:42:06.168Z,13.30
2017-06-24T03:44:33.560Z,12.40
2017-06-24T03:47:00.974Z,12.33
2017-06-24T03:49:28.359Z,15.07
2017-06-24T03:51:55.759Z,12.23
2017-06-24T03:54:23.152Z,13.20
2017-06-24T03:56:50.817Z,19.20
2017-06-24T03:59:18.199Z,15.37
2017-06-24T04:01:45.595Z,9.70
2017-06-24T04:04:12.986Z,15.67
2017-06-24T04:06:40.390Z,10.10
2017-06-24T04:09:07.788Z,16.50
2017-06-24T04:11:35.276Z,10.07
2017-06-24T04:14:02.679Z,12.10
2017-06-24T04:16:30.070Z,17.57
2017-06-24T04:18:57.471Z,14.63
2017-06-24T04:21:24.866Z,16.87
2017-06-24T04:23:52.271Z,22.40
2017-06-24T04:26:19.669Z,13.00
2017-06-24T04:28:47.063Z,14.70
2017-06-24T04:31:14.464Z,17.70
2017-06-24T04:33:41.866Z,11.80
2017-06-24T04:36:09.267Z,13.03
2017-06-24T04:38:36.686Z,17.27
2017-06-24T04:41:04.082Z,11.90
2017-06-24T04:43:31.482Z,20.17
2017-06-24T04:45:58.888Z,19.17
2017-06-24T04:48:26.282Z,16.83
2017-06-24T04:50:53.683Z,19.63
2017-06-24T04:53:21.082Z,20.77
2017-06-24T04:55:48.479Z,12.63
2017-06-24T04:58:15.886Z,19.07
2017-06-24T05:00:43.281Z,17.67
2017-06-24T05:03:10.678Z,15.27
2017-06-24T05:05:38.071Z,18.07
2017-06-24T05:08:05.483Z,18.53
2017-06-24T05:10:32.870Z,8.70
2017-06-24T05:13:00.274Z,10.20
2017-06-24T05:15:27.673Z,12.47
2017-06-24T05:17:55.340Z,11.70
2017-06-24T05:20:22.735Z,16.27
2017-06-24T05:22:50.151Z,16.23
2017-06-24T05:25:17.551Z,13.90
2017-06-24T05:27:44.956Z,12.83
2017-06-24T05:30:12.366Z,11.43
2017-06-24T05:32:39.747Z,13.80
2017-06-24T05:35:07.148Z,16.13
2017-06-24T05:37:34.546Z,14.10
2017-06-24T05:40:01.947Z,18.03
2017-06-24T05:42:29.340Z,14.10
2017-06-24T05:44:56.741Z,8.43
2017-06-24T05:47:24.136Z,10.70
2017-06-24T05:49:51.543Z,14.60
2017-06-24T05:52:18.941Z,10.80
2017-06-24T05:54:46.341Z,17.70
2017-06-24T05:57:13.734Z,8.73
2017-06-24T05:59:41.139Z,15.20
2017-06-24T06:02:08.531Z,11.10
2017-06-24T06:04:35.928Z,11.50
2017-06-24T06:07:03.328Z,15.10
2017-06-24T06:09:30.735Z,12.27
2017-06-24T06:11:58.130Z,12.20
2017-06-24T06:14:25.522Z,11.33
2017-06-24T06:16:52.925Z,11.43
2017-06-24T06:19:20.323Z,10.93
2017-06-24T06:21:47.723Z,15.70
2017-06-24T06:24:15.122Z,26.53
2017-06-24T06:26:42.520Z,11.20
2017-06-24T06:29:09.919Z,17.07
2017-06-24T06:31:37.322Z,11.67
2017-06-24T06:34:04.719Z,10.57
2017-06-24T06:36:32.112Z,14.47
2017-06-24T06:38:59.507Z,19.57
2017-06-24T06:41:26.906Z,22.93
2017-06-24T06:43:54.311Z,12.83
2017-06-24T06:46:21.728Z,16.40
2017-06-24T06:48:49.127Z,17.80
2017-06-24T06:51:16.847Z,14.57
2017-06-24T06:53:44.246Z,15.60
2017-06-24T06:56:11.647Z,19.70
2017-06-24T06:58:39.043Z,16.00
2017-06-24T07:01:06.451Z,14.43
2017-06-24T07:03:33.852Z,17.83
2017-06-24T07:06:01.251Z,15.93
2017-06-24T07:08:28.940Z,14.40
2017-06-24T07:10:56.345Z,16.23
2017-06-24T07:13:23.740Z,10.27
2017-06-24T07:15:51.143Z,18.53
2017-06-24T07:18:18.539Z,25.13
2017-06-24T07:20:45.942Z,13.50
2017-06-24T07:23:13.340Z,13.07
2017-06-24T07:25:40.742Z,21.03
2017-06-24T07:28:08.151Z,15.80
2017-06-24T07:30:35.550Z,20.40
2017-06-24T07:33:02.961Z,21.20
2017-06-24T07:35:30.363Z,12.10
2017-06-24T07:37:57.763Z,16.30
2017-06-24T07:40:25.163Z,14.10
2017-06-24T07:42:52.554Z,14.03
2017-06-24T07:45:19.959Z,14.47
2017-06-24T07:47:47.359Z,16.30
2017-06-24T07:50:14.772Z,13.50
2017-06-24T07:52:42.162Z,15.13
2017-06-24T07:55:09.556Z,18.87
2017-06-24T07:57:36.955Z,14.53
2017-06-24T08:00:04.348Z,12.90
2017-06-24T08:02:31.747Z,16.47
2017-06-24T08:04:59.143Z,12.53
2017-06-24T08:07:26.544Z,14.60
2017-06-24T08:09:53.939Z,18.07
2017-06-24T08:12:21.344Z,20.73
2017-06-24T08:14:48.756Z,11.83
2017-06-24T08:17:16.154Z,11.20
2017-06-24T08:19:43.555Z,10.93
2017-06-24T08:22:10.956Z,10.77
2017-06-24T08:24:38.347Z,16.47
2017-06-24T08:27:05.758Z,14.83
2017-06-24T08:29:33.957Z,13.83
2017-06-24T08:32:01.447Z,16.70
2017-06-24T08:34:28.851Z,13.93
2017-06-24T08:36:56.254Z,15.33
2017-06-24T08:39:23.667Z,12.50
2017-06-24T08:41:51.076Z,9.37
2017-06-24T08:46:52.284Z,16.53
2017-06-24T08:49:19.683Z,19.30
2017-06-24T08:51:47.083Z,10.20
2017-06-24T08:54:14.479Z,15.63
2017-06-24T08:56:41.879Z,16.67
2017-06-24T08:59:09.274Z,17.03
2017-06-24T09:01:36.928Z,11.33
2017-06-24T09:04:04.322Z,15.10
2017-06-24T09:06:31.719Z,12.07
2017-06-24T09:08:59.127Z,18.87
2017-06-24T09:11:26.520Z,13.33
2017-06-24T09:13:53.929Z,23.00
2017-06-24T09:16:21.323Z,20.00
2017-06-24T09:18:48.726Z,16.03
2017-06-24T09:21:16.134Z,18.03
2017-06-24T09:23:43.539Z,17.40
2017-06-24T09:26:10.950Z,24.47
2017-06-24T09:28:38.351Z,20.27
2017-06-24T09:31:05.759Z,19.87
2017-06-24T09:33:33.167Z,27.30
2017-06-24T09:36:00.571Z,18.50
2017-06-24T09:38:27.982Z,28.67
2017-06-24T09:40:55.374Z,22.43
2017-06-24T09:43:22.775Z,24.57
2017-06-24T09:45:50.175Z,25.57
2017-06-24T09:48:17.579Z,32.43
2017-06-24T09:50:44.975Z,30.57
2017-06-24T09:53:12.377Z,22.77
2017-06-24T09:55:39.782Z,24.43
2017-06-24T09:58:07.187Z,28.63
2017-06-24T10:00:34.591Z,27.70
2017-06-24T10:03:01.995Z,25.90
2017-06-24T10:05:29.391Z,30.33
2017-06-24T10:07:56.795Z,27.43
2017-06-24T10:10:24.195Z,31.07
2017-06-24T10:12:51.599Z,33.17
2017-06-24T10:15:18.991Z,35.77
2017-06-24T10:17:46.401Z,36.60
2017-06-24T10:20:13.810Z,29.83
2017-06-24T10:22:41.210Z,35.63
2017-06-24T10:25:08.611Z,31.43
2017-06-24T10:27:36.014Z,35.07
2017-06-24T10:30:03.441Z,36.40
2017-06-24T10:32:30.835Z,34.80
2017-06-24T10:34:58.239Z,40.60
2017-06-24T10:37:25.863Z,42.40
2017-06-24T10:39:53.271Z,34.77
2017-06-24T10:42:20.672Z,29.87
2017-06-24T10:44:48.071Z,29.20
2017-06-24T10:47:15.471Z,27.67
2017-06-24T10:49:42.870Z,32.03
2017-06-24T10:52:10.275Z,29.80
2017-06-24T10:54:37.672Z,32.70
2017-06-24T10:57:05.083Z,26.90
2017-06-24T10:59:32.483Z,28.27
2017-06-24T11:01:59.886Z,28.40
2017-06-24T11:04:27.290Z,22.03
2017-06-24T11:06:54.688Z,22.80
2017-06-24T11:09:22.092Z,24.83
2017-06-24T11:11:49.492Z,22.67
2017-06-24T11:14:16.894Z,22.80
2017-06-24T11:16:44.299Z,19.43
2017-06-24T11:19:11.708Z,22.70
2017-06-24T11:21:39.107Z,24.57
2017-06-24T11:24:06.515Z,29.67
2017-06-24T11:26:33.915Z,22.20
2017-06-24T11:29:01.337Z,21.40
2017-06-24T11:31:28.736Z,20.13
2017-06-24T11:33:56.135Z,22.90
2017-06-24T11:36:23.543Z,20.17
2017-06-24T11:38:50.943Z,20.83
2017-06-24T11:41:18.355Z,25.40
2017-06-24T11:43:45.755Z,19.50
2017-06-24T11:46:13.162Z,20.77
2017-06-24T11:48:40.564Z,23.80
2017-06-24T11:51:08.304Z,21.13
2017-06-24T11:53:35.700Z,20.90
2017-06-24T11:56:03.108Z,21.43
2017-06-24T11:58:30.510Z,20.47
2017-06-24T12:00:57.919Z,22.70
2017-06-24T12:03:25.327Z,25.80
2017-06-24T12:05:52.732Z,24.60
2017-06-24T12:08:20.395Z,27.63
2017-06-24T12:10:47.794Z,21.10
2017-06-24T12:13:15.200Z,22.40
2017-06-24T12:15:42.594Z,21.37
2017-06-24T12:18:10.015Z,16.30
2017-06-24T12:20:37.407Z,21.23
2017-06-24T12:23:04.811Z,25.70
2017-06-24T12:25:32.211Z,14.97
2017-06-24T12:27:59.622Z,26.00
2017-06-24T12:30:27.020Z,17.10
2017-06-24T12:32:54.571Z,17.13
2017-06-24T12:35:21.990Z,15.93
2017-06-24T12:37:49.409Z,14.43
2017-06-24T12:40:16.805Z,16.50
2017-06-24T12:42:44.199Z,18.73
2017-06-24T12:45:11.617Z,17.17
2017-06-24T12:47:39.002Z,11.53
2017-06-24T12:50:06.418Z,11.80
2017-06-24T12:52:33.803Z,13.33
2017-06-24T12:55:01.242Z,12.60
2017-06-24T12:57:28.643Z,11.77
2017-06-24T12:59:56.051Z,15.30
2017-06-24T13:02:23.454Z,15.53
2017-06-24T13:04:50.856Z,11.30
2017-06-24T13:07:18.247Z,9.67
2017-06-24T13:09:45.646Z,16.17
2017-06-24T13:12:13.038Z,10.13
2017-06-24T13:14:40.439Z,10.33
2017-06-24T13:17:07.834Z,10.57
2017-06-24T13:19:35.239Z,20.83
2017-06-24T13:22:02.631Z,11.47
2017-06-24T13:24:30.319Z,19.70
2017-06-24T13:26:57.715Z,12.23
2017-06-24T13:29:25.123Z,12.37
2017-06-24T13:31:52.511Z,10.87
2017-06-24T13:34:19.920Z,10.27
2017-06-24T13:36:47.315Z,20.27
2017-06-24T13:39:14.719Z,10.97
2017-06-24T13:41:42.115Z,10.83
2017-06-24T13:44:09.523Z,15.10
2017-06-24T13:46:36.919Z,28.23
2017-06-24T13:49:04.340Z,10.93
2017-06-24T13:51:31.738Z,9.70
2017-06-24T13:53:59.133Z,13.77
2017-06-24T13:56:26.532Z,11.83
2017-06-24T13:58:53.931Z,10.50
2017-06-24T14:01:21.338Z,12.57
2017-06-24T14:03:48.731Z,9.40
2017-06-24T14:06:16.139Z,11.90
2017-06-24T14:08:43.531Z,11.83
2017-06-24T14:11:10.935Z,12.13
2017-06-24T14:13:38.322Z,17.23
2017-06-24T14:16:05.987Z,10.27
2017-06-24T14:18:33.386Z,11.40
2017-06-24T14:21:00.799Z,13.70
2017-06-24T14:23:28.207Z,13.00
2017-06-24T14:25:55.611Z,12.23
2017-06-24T14:28:23.015Z,18.07
2017-06-24T14:30:50.425Z,21.80
2017-06-24T14:33:18.082Z,10.60
2017-06-24T14:35:45.494Z,16.73
2017-06-24T14:38:12.897Z,11.70
2017-06-24T14:40:40.316Z,15.20
2017-06-24T14:43:07.699Z,14.13
2017-06-24T14:45:35.115Z,14.03
2017-06-24T14:48:02.546Z,11.90
2017-06-24T14:50:29.923Z,14.30
2017-06-24T14:52:57.322Z,12.10
2017-06-24T14:55:24.723Z,14.97
2017-06-24T14:57:52.122Z,15.93
2017-06-24T15:00:19.527Z,20.37
2017-06-24T15:02:46.923Z,16.23
2017-06-24T15:05:14.316Z,10.80
2017-06-24T15:07:41.718Z,11.63
2017-06-24T15:10:09.110Z,14.93
2017-06-24T15:12:36.515Z,10.03
2017-06-24T15:15:03.918Z,10.00
2017-06-24T15:17:31.315Z,14.60
2017-06-24T15:19:58.946Z,12.17
2017-06-24T15:22:26.352Z,11.73
2017-06-24T15:24:53.747Z,8.60
2017-06-24T15:27:21.151Z,15.40
2017-06-24T15:29:48.541Z,8.90
2017-06-24T15:32:15.935Z,7.23
2017-06-24T15:34:43.336Z,7.80
2017-06-24T15:37:10.746Z,8.57
2017-06-24T15:39:38.135Z,7.87
2017-06-24T15:42:05.539Z,7.40
2017-06-24T15:44:32.935Z,10.13
2017-06-24T15:47:00.335Z,7.03
2017-06-24T15:49:27.731Z,6.73
2017-06-24T15:51:55.127Z,8.67
2017-06-24T15:54:22.519Z,8.10
2017-06-24T15:56:52.467Z,8.80
2017-06-24T15:59:19.847Z,8.90
2017-06-24T16:01:47.252Z,9.87
2017-06-24T16:04:14.643Z,7.90
2017-06-24T16:06:42.043Z,11.50
2017-06-24T16:09:09.439Z,11.27
2017-06-24T16:11:36.838Z,7.47
2017-06-24T16:14:04.239Z,12.40
2017-06-24T16:16:31.631Z,7.37
2017-06-24T16:18:59.023Z,7.30
2017-06-24T16:21:26.436Z,6.70
2017-06-24T16:23:53.848Z,6.83
2017-06-24T16:26:21.239Z,7.10
2017-06-24T16:28:48.631Z,6.37
2017-06-24T16:31:16.023Z,5.57
2017-06-24T16:33:43.423Z,9.17
2017-06-24T16:36:10.819Z,6.57
2017-06-24T16:38:38.227Z,5.63
2017-06-24T16:41:05.618Z,5.23
2017-06-24T16:43:33.017Z,9.00
2017-06-24T16:46:00.407Z,5.63
2017-06-24T16:48:27.809Z,6.33
2017-06-24T16:50:55.195Z,6.47
2017-06-24T16:53:22.595Z,4.80
2017-06-24T16:55:49.991Z,4.97
2017-06-24T16:58:17.387Z,6.00
2017-06-24T17:00:44.779Z,4.93
2017-06-24T17:03:13.094Z,7.93
2017-06-24T17:05:40.479Z,5.00
2017-06-24T17:08:07.888Z,4.97
2017-06-24T17:10:35.276Z,5.20
2017-06-24T17:13:02.679Z,6.47
2017-06-24T17:15:30.071Z,13.10
2017-06-24T17:17:57.466Z,6.33
2017-06-24T17:20:24.847Z,5.37
2017-06-24T17:22:52.247Z,6.60
2017-06-24T17:25:19.855Z,5.37
2017-06-24T17:27:47.256Z,5.70
2017-06-24T17:30:14.650Z,6.20
2017-06-24T17:32:42.036Z,5.27
2017-06-24T17:35:09.430Z,5.50
2017-06-24T17:37:36.816Z,6.30
2017-06-24T17:40:04.208Z,5.97
2017-06-24T17:42:31.595Z,6.13
2017-06-24T17:44:58.995Z,6.03
2017-06-24T17:47:26.387Z,5.40
2017-06-24T17:49:53.788Z,6.03
2017-06-24T17:52:21.388Z,6.53
2017-06-24T17:54:48.787Z,6.70
2017-06-24T17:57:16.183Z,5.63
2017-06-24T17:59:43.575Z,9.00
2017-06-24T18:02:10.979Z,13.03
2017-06-24T18:04:38.375Z,10.03
2017-06-24T18:07:05.771Z,9.40
2017-06-24T18:09:33.173Z,10.77
2017-06-24T18:12:00.583Z,11.43
2017-06-24T18:14:28.198Z,11.40
2017-06-24T18:16:55.595Z,9.27
2017-06-24T18:19:23.003Z,13.87
2017-06-24T18:21:50.411Z,11.70
2017-06-24T18:24:17.831Z,13.20
2017-06-24T18:26:45.231Z,14.17
2017-06-24T18:29:12.630Z,13.20
2017-06-24T18:31:40.047Z,19.63
2017-06-24T18:34:07.442Z,17.40
2017-06-24T18:36:34.853Z,13.17
2017-06-24T18:39:02.246Z,16.60
2017-06-24T18:41:29.658Z,21.20
2017-06-24T18:43:57.059Z,17.50
2017-06-24T18:46:24.467Z,16.10
2017-06-24T18:48:51.859Z,22.00
2017-06-24T18:51:19.271Z,19.97
2017-06-24T18:53:46.666Z,14.77
2017-06-24T18:56:14.079Z,17.67
2017-06-24T18:58:41.479Z,12.60
2017-06-24T19:01:08.892Z,16.67
2017-06-24T19:03:36.286Z,17.90
2017-06-24T19:06:03.699Z,18.80
2017-06-24T19:08:31.099Z,16.03
2017-06-24T19:10:58.510Z,17.83
2017-06-24T19:13:25.913Z,17.10
2017-06-24T19:15:53.328Z,17.00
2017-06-24T19:18:20.723Z,16.60
2017-06-24T19:20:48.131Z,13.53
2017-06-24T19:23:15.527Z,14.53
2017-06-24T19:25:42.940Z,16.37
2017-06-24T19:28:10.343Z,19.10
2017-06-24T19:30:37.751Z,14.73
2017-06-24T19:33:05.147Z,16.20
2017-06-24T19:35:32.556Z,16.50
2017-06-24T19:37:59.946Z,15.93
2017-06-24T19:40:27.350Z,12.73
2017-06-24T19:42:54.752Z,15.80
2017-06-24T19:45:22.155Z,14.87
2017-06-24T19:47:49.563Z,18.00
2017-06-24T19:50:16.967Z,15.27
2017-06-24T19:52:44.375Z,14.10
2017-06-24T19:55:11.774Z,15.70
2017-06-24T19:57:39.183Z,16.57
2017-06-24T20:00:06.588Z,19.00
2017-06-24T20:02:33.991Z,20.90
2017-06-24T20:05:01.395Z,20.33
2017-06-24T20:07:28.799Z,20.30
2017-06-24T20:09:56.192Z,20.10
2017-06-24T20:12:23.609Z,17.77
2017-06-24T20:14:51.216Z,17.90
2017-06-24T20:17:18.640Z,20.20
2017-06-24T20:19:46.047Z,14.20
2017-06-24T20:22:13.451Z,22.00
2017-06-24T20:24:40.846Z,19.63
2017-06-24T20:27:08.248Z,20.47
2017-06-24T20:29:35.646Z,24.40
2017-06-24T20:32:03.054Z,22.00
2017-06-24T20:34:30.464Z,28.50
2017-06-24T20:36:57.863Z,24.93
2017-06-24T20:39:25.259Z,25.43
2017-06-24T20:41:52.891Z,25.77
2017-06-24T20:44:20.290Z,27.40
2017-06-24T20:46:47.703Z,34.60
2017-06-24T20:49:15.101Z,29.43
2017-06-24T20:51:42.532Z,29.37
2017-06-24T20:54:09.922Z,26.80
2017-06-24T20:56:37.318Z,27.70
2017-06-24T20:59:04.722Z,23.23
2017-06-24T21:01:32.122Z,20.93
2017-06-24T21:03:59.518Z,23.20
2017-06-24T21:06:27.591Z,21.13
2017-06-24T21:08:55.002Z,20.00
2017-06-24T21:11:22.682Z,30.23
2017-06-24T21:13:50.095Z,24.43
2017-06-24T21:16:17.513Z,25.13
2017-06-24T21:18:44.894Z,28.30
2017-06-24T21:21:12.295Z,24.23
2017-06-24T21:23:39.728Z,22.50
2017-06-24T21:26:07.123Z,26.90
2017-06-24T21:28:34.530Z,24.07
2017-06-24T21:31:01.930Z,27.80
2017-06-24T21:33:29.339Z,25.60
2017-06-24T21:35:56.735Z,25.30
2017-06-24T21:38:24.139Z,19.40
2017-06-24T21:40:51.542Z,24.97
2017-06-24T21:43:18.943Z,20.30
2017-06-24T21:45:46.346Z,23.67
2017-06-24T21:48:13.764Z,24.87
2017-06-24T21:50:41.159Z,24.03
2017-06-24T21:53:08.563Z,27.53
2017-06-24T21:55:35.959Z,27.10
2017-06-24T21:58:03.367Z,31.83
2017-06-24T22:00:30.762Z,25.43
2017-06-24T22:02:58.166Z,26.03
2017-06-24T22:05:25.567Z,24.40
2017-06-24T22:07:52.967Z,24.77
2017-06-24T22:10:20.371Z,24.57
2017-06-24T22:12:47.771Z,23.07
2017-06-24T22:15:15.180Z,20.93
2017-06-24T22:17:42.566Z,24.47
2017-06-24T22:20:09.976Z,22.50
2017-06-24T22:22:37.372Z,22.47
2017-06-24T22:25:04.779Z,24.67
2017-06-24T22:27:32.170Z,20.90
2017-06-24T22:29:59.578Z,23.10
2017-06-24T22:32:26.979Z,29.70
2017-06-24T22:34:54.391Z,25.40
2017-06-24T22:37:22.042Z,18.60
2017-06-24T22:39:49.443Z,24.73
2017-06-24T22:42:16.832Z,20.03
2017-06-24T22:44:44.503Z,22.50
2017-06-24T22:47:11.900Z,25.03
2017-06-24T22:49:39.303Z,27.43
2017-06-24T22:52:06.707Z,23.50
2017-06-24T22:54:34.110Z,23.67
2017-06-24T22:57:01.502Z,17.60
2017-06-24T22:59:28.907Z,20.67
2017-06-24T23:01:56.319Z,21.17
2017-06-24T23:04:23.722Z,22.07
2017-06-24T23:06:51.119Z,15.63
2017-06-24T23:09:18.523Z,19.37
2017-06-24T23:11:45.923Z,16.30
2017-06-24T23:14:13.327Z,17.00
2017-06-24T23:16:40.739Z,19.57
2017-06-24T23:19:08.134Z,16.00
2017-06-24T23:21:35.534Z,16.40
2017-06-24T23:24:02.936Z,15.13
2017-06-24T23:26:30.338Z,19.30
2017-06-24T23:28:57.755Z,14.57
2017-06-24T23:31:25.162Z,13.23
2017-06-24T23:33:52.562Z,13.83
2017-06-24T23:36:19.977Z,13.63
2017-06-24T23:38:47.363Z,9.67
2017-06-24T23:41:14.762Z,10.40
2017-06-24T23:43:42.182Z,12.47
2017-06-24T23:46:09.568Z,12.43
2017-06-24T23:48:36.966Z,12.80
2017-06-24T23:51:04.599Z,12.03
2017-06-24T23:53:31.997Z,12.70
2017-06-24T23:55:59.398Z,10.83
2017-06-24T23:58:26.791Z,10.80
